Time;durP1;ratioP1;P1;durP2;ratioP2;P2;SDS_P1;SDS_P2;PMS_P1;PMS_P2;Temp;Humidity;BMP_temperature;BMP_pressure;BME280_temperature;BME280_humidity;BME280_pressure;Samples;Min_cycle;Max_cycle;Signal;HPM_P1;HPM_P2
2021/05/25 00:00:06;;;;;;;10.20;5.63;;;9.70;99.90;;;;;;5070620;28;20028;-86
2021/05/25 00:02:32;;;;;;;7.85;5.53;;;9.80;99.90;;;;;;5068947;28;20060;-87
2021/05/25 00:04:58;;;;;;;7.35;5.50;;;9.80;99.90;;;;;;5069135;28;20033;-87
2021/05/25 00:07:24;;;;;;;10.60;6.93;;;9.80;99.90;;;;;;5068672;28;20040;-87
2021/05/25 00:09:51;;;;;;;9.13;7.50;;;9.80;99.90;;;;;;5068559;28;20145;-86
2021/05/25 00:12:17;;;;;;;9.32;6.63;;;9.80;99.90;;;;;;5052137;28;20029;-87
2021/05/25 00:14:43;;;;;;;10.40;6.50;;;9.70;99.90;;;;;;5065972;28;20086;-87
2021/05/25 00:17:10;;;;;;;11.35;7.70;;;9.70;99.90;;;;;;5069502;28;20108;-87
2021/05/25 00:19:36;;;;;;;11.20;7.85;;;9.70;99.90;;;;;;5069927;28;20083;-88
2021/05/25 00:22:02;;;;;;;12.73;8.73;;;9.70;99.90;;;;;;5070062;28;20039;-87
2021/05/25 00:24:28;;;;;;;10.63;7.53;;;9.60;99.90;;;;;;5072169;28;20060;-87
2021/05/25 00:26:54;;;;;;;9.00;6.60;;;9.60;99.90;;;;;;5073139;28;20124;-88
2021/05/25 00:29:20;;;;;;;8.45;6.53;;;9.60;99.90;;;;;;5072915;28;20032;-87
2021/05/25 00:31:46;;;;;;;8.43;6.15;;;9.50;99.90;;;;;;5073181;28;20012;-86
2021/05/25 00:34:12;;;;;;;11.95;7.10;;;9.50;99.90;;;;;;5073624;28;20138;-87
2021/05/25 00:36:38;;;;;;;9.13;6.30;;;9.50;99.90;;;;;;5072180;28;20024;-87
2021/05/25 00:39:05;;;;;;;8.85;6.85;;;9.50;99.90;;;;;;5073222;28;20078;-86
2021/05/25 00:41:32;;;;;;;11.13;6.68;;;9.40;99.90;;;;;;5072556;28;20467;-87
2021/05/25 00:43:58;;;;;;;8.48;5.78;;;9.40;99.90;;;;;;5073536;28;20020;-86
2021/05/25 00:46:25;;;;;;;8.25;5.60;;;9.40;99.90;;;;;;5073894;28;20039;-87
2021/05/25 00:48:51;;;;;;;8.68;6.35;;;9.50;99.90;;;;;;5073653;28;20033;-87
2021/05/25 00:51:18;;;;;;;8.40;6.10;;;9.40;99.90;;;;;;5074937;28;20097;-87
2021/05/25 00:53:43;;;;;;;8.77;6.22;;;9.40;99.90;;;;;;5074640;28;20082;-88
2021/05/25 00:56:10;;;;;;;8.52;7.15;;;9.50;99.90;;;;;;5074761;28;20032;-87
2021/05/25 00:58:37;;;;;;;9.55;7.50;;;9.50;99.90;;;;;;5076019;28;20019;-88
2021/05/25 01:01:04;;;;;;;10.35;7.18;;;9.50;99.90;;;;;;5075798;28;20056;-88
2021/05/25 01:03:32;;;;;;;12.40;7.75;;;9.50;99.90;;;;;;5076121;28;20054;-87
2021/05/25 01:05:58;;;;;;;12.90;8.10;;;9.50;99.90;;;;;;5063617;28;20025;-87
2021/05/25 01:08:24;;;;;;;11.20;8.27;;;9.50;99.90;;;;;;5055786;28;20082;-88
2021/05/25 01:10:53;;;;;;;12.18;8.02;;;9.40;99.90;;;;;;5055333;28;20045;-87
2021/05/25 01:13:27;;;;;;;9.32;7.05;;;9.40;99.90;;;;;;5055801;28;20021;-87
2021/05/25 01:15:53;;;;;;;11.40;7.43;;;9.30;99.90;;;;;;5055815;28;20018;-88
2021/05/25 01:18:20;;;;;;;10.57;6.95;;;9.30;99.90;;;;;;5070594;28;20040;-87
2021/05/25 01:20:49;;;;;;;9.10;5.75;;;9.20;99.90;;;;;;5075830;28;20024;-87
2021/05/25 01:23:16;;;;;;;7.43;5.25;;;9.20;99.90;;;;;;5075574;28;20028;-87
2021/05/25 01:25:48;;;;;;;6.85;4.60;;;9.20;99.90;;;;;;5075696;28;20396;-87
2021/05/25 01:28:15;;;;;;;7.63;5.60;;;9.10;99.90;;;;;;5075220;28;20055;-86
2021/05/25 01:30:48;;;;;;;6.72;4.18;;;9.10;99.90;;;;;;5075051;28;20036;-87
2021/05/25 01:33:14;;;;;;;8.98;5.32;;;9.00;99.90;;;;;;5070272;28;20021;-87
2021/05/25 01:35:41;;;;;;;8.30;5.40;;;9.00;99.90;;;;;;5055069;28;20035;-88
2021/05/25 01:38:10;;;;;;;6.47;4.82;;;8.90;99.90;;;;;;5038354;28;20033;-87
2021/05/25 01:40:38;;;;;;;9.10;5.50;;;8.90;99.90;;;;;;5054878;28;20437;-87
2021/05/25 01:43:05;;;;;;;7.85;4.88;;;8.90;99.90;;;;;;5059402;28;20581;-86
2021/05/25 01:45:32;;;;;;;6.82;4.70;;;8.90;99.90;;;;;;5074429;28;20112;-87
2021/05/25 01:48:02;;;;;;;7.97;4.57;;;8.90;99.90;;;;;;5074787;28;20058;-87
2021/05/25 01:50:28;;;;;;;5.95;3.97;;;8.90;99.90;;;;;;5074572;28;20417;-88
2021/05/25 01:53:02;;;;;;;6.00;4.20;;;8.90;99.90;;;;;;5071182;28;20056;-87
2021/05/25 01:55:27;;;;;;;6.07;4.80;;;8.90;99.90;;;;;;5061592;28;20048;-87
2021/05/25 01:57:55;;;;;;;9.73;4.97;;;8.90;99.90;;;;;;5074074;28;20063;-87
2021/05/25 02:00:22;;;;;;;7.20;4.78;;;8.90;99.90;;;;;;5058535;28;20037;-87
2021/05/25 02:02:48;;;;;;;7.18;4.40;;;8.90;99.90;;;;;;5053934;28;20025;-87
2021/05/25 02:05:14;;;;;;;5.22;3.78;;;8.90;99.90;;;;;;5060123;28;20021;-88
2021/05/25 02:07:49;;;;;;;6.35;3.70;;;8.90;99.90;;;;;;5064427;28;20086;-87
2021/05/25 02:10:23;;;;;;;5.97;3.33;;;8.90;99.90;;;;;;5054092;28;20077;-86
2021/05/25 02:12:50;;;;;;;4.53;3.33;;;8.80;99.90;;;;;;5055254;28;20025;-86
2021/05/25 02:15:17;;;;;;;5.90;3.20;;;8.80;99.90;;;;;;5054643;28;20025;-86
2021/05/25 02:17:46;;;;;;;5.35;3.30;;;8.80;99.90;;;;;;5055655;28;20021;-86
2021/05/25 02:20:13;;;;;;;6.32;3.63;;;8.80;99.90;;;;;;5058791;28;20392;-86
2021/05/25 02:22:39;;;;;;;4.95;3.10;;;8.70;99.90;;;;;;5071718;28;20021;-87
2021/05/25 02:25:13;;;;;;;6.38;3.75;;;8.70;99.90;;;;;;5054349;28;20041;-86
2021/05/25 02:27:39;;;;;;;5.10;2.92;;;8.60;99.90;;;;;;5054020;28;20033;-86
2021/05/25 02:30:06;;;;;;;4.38;2.45;;;8.50;99.90;;;;;;5066166;28;20059;-86
2021/05/25 02:32:34;;;;;;;4.13;2.30;;;8.40;99.90;;;;;;5075090;28;20021;-86
2021/05/25 02:34:59;;;;;;;3.85;2.50;;;8.40;99.90;;;;;;5070014;28;20420;-86
2021/05/25 02:37:25;;;;;;;4.00;2.40;;;8.30;99.90;;;;;;5053519;28;20025;-87
2021/05/25 02:39:51;;;;;;;4.97;2.47;;;8.40;99.90;;;;;;5064867;28;20024;-87
2021/05/25 02:42:17;;;;;;;4.43;2.10;;;8.40;99.90;;;;;;5073679;28;20028;-87
2021/05/25 02:44:44;;;;;;;4.00;2.17;;;8.40;99.90;;;;;;5072931;28;20139;-86
2021/05/25 02:47:10;;;;;;;3.78;2.42;;;8.30;99.90;;;;;;5058445;28;20472;-86
2021/05/25 02:49:36;;;;;;;4.80;2.28;;;8.30;99.90;;;;;;5065573;28;20111;-87
2021/05/25 02:52:06;;;;;;;3.42;2.13;;;8.30;99.90;;;;;;5065944;28;20040;-87
2021/05/25 02:54:32;;;;;;;5.00;2.50;;;8.10;99.90;;;;;;5056854;28;20067;-86
2021/05/25 02:56:58;;;;;;;5.85;2.53;;;8.10;99.90;;;;;;5056672;28;20512;-86
2021/05/25 02:59:24;;;;;;;6.28;3.08;;;8.00;99.90;;;;;;5066261;28;20056;-87
2021/05/25 03:01:50;;;;;;;4.25;2.42;;;8.00;99.90;;;;;;5053360;28;20052;-86
2021/05/25 03:04:16;;;;;;;6.97;2.42;;;7.90;99.90;;;;;;5067696;28;20403;-85
2021/05/25 03:06:42;;;;;;;5.90;2.47;;;7.90;99.90;;;;;;5071808;28;20036;-87
2021/05/25 03:09:09;;;;;;;3.17;2.08;;;7.90;99.90;;;;;;5053325;28;20090;-86
2021/05/25 03:11:35;;;;;;;5.15;2.40;;;7.80;99.90;;;;;;5054180;28;20056;-87
2021/05/25 03:14:04;;;;;;;4.57;2.20;;;7.80;99.90;;;;;;5053414;28;20025;-86
2021/05/25 03:16:55;;;;;;;5.50;2.67;;;7.70;99.90;;;;;;5053384;28;20381;-87
2021/05/25 03:19:34;;;;;;;5.03;2.75;;;7.70;99.90;;;;;;5060001;28;20036;-86
2021/05/25 03:22:03;;;;;;;4.57;2.40;;;7.70;99.90;;;;;;5073223;28;20031;-87
2021/05/25 03:24:34;;;;;;;4.53;2.42;;;7.60;99.90;;;;;;5056645;28;20178;-87
2021/05/25 03:27:00;;;;;;;6.30;2.50;;;7.60;99.90;;;;;;5053102;28;20032;-88
2021/05/25 03:29:26;;;;;;;5.93;2.58;;;7.60;99.90;;;;;;5053074;28;20036;-87
2021/05/25 03:31:52;;;;;;;5.05;2.80;;;7.60;99.90;;;;;;5053139;28;20384;-87
2021/05/25 03:34:18;;;;;;;3.67;2.33;;;7.60;99.90;;;;;;5072976;28;20141;-87
2021/05/25 03:36:43;;;;;;;4.93;2.80;;;7.60;99.90;;;;;;5055993;28;20535;-87
2021/05/25 03:39:09;;;;;;;5.35;2.83;;;7.70;99.90;;;;;;5067706;28;20029;-87
2021/05/25 03:41:35;;;;;;;7.57;3.28;;;7.70;99.90;;;;;;5052328;28;20041;-86
2021/05/25 03:44:01;;;;;;;5.10;2.70;;;7.70;99.90;;;;;;5065325;28;20055;-86
2021/05/25 03:49:32;;;;;;;4.50;2.70;;;7.70;99.90;;;;;;4992406;28;20118;-87
2021/05/25 03:51:58;;;;;;;5.13;2.85;;;7.70;99.90;;;;;;5044171;28;20505;-86
2021/05/25 03:54:33;;;;;;;5.05;2.70;;;7.70;99.90;;;;;;5068432;28;20021;-86
2021/05/25 03:57:04;;;;;;;5.60;2.40;;;7.70;99.90;;;;;;5052666;28;20029;-87
2021/05/25 03:59:30;;;;;;;4.57;2.35;;;7.80;99.90;;;;;;5063814;28;20017;-86
2021/05/25 04:01:58;;;;;;;4.07;2.20;;;7.80;99.90;;;;;;5076474;28;20380;-86
2021/05/25 04:04:24;;;;;;;6.20;3.20;;;7.90;99.90;;;;;;5076585;28;20025;-86
2021/05/25 04:06:52;;;;;;;5.28;2.55;;;7.90;99.90;;;;;;5059306;28;20044;-86
2021/05/25 04:09:18;;;;;;;5.68;2.42;;;8.00;99.90;;;;;;5076775;28;20028;-87
2021/05/25 04:11:54;;;;;;;7.30;2.72;;;8.10;99.90;;;;;;5065788;28;20067;-89
2021/05/25 04:14:20;;;;;;;7.72;3.72;;;8.10;99.90;;;;;;5057016;28;20131;-86
2021/05/25 04:16:46;;;;;;;6.13;3.08;;;8.20;99.90;;;;;;5058446;28;20056;-86
2021/05/25 04:19:12;;;;;;;7.40;3.30;;;8.20;99.90;;;;;;5077866;28;20024;-87
2021/05/25 04:21:38;;;;;;;6.18;3.55;;;8.20;99.90;;;;;;5076475;28;20472;-86
2021/05/25 04:24:06;;;;;;;5.45;3.17;;;8.20;99.90;;;;;;5076672;28;20043;-87
2021/05/25 04:26:33;;;;;;;5.00;2.78;;;8.20;99.90;;;;;;5058982;28;20116;-86
2021/05/25 04:28:59;;;;;;;7.15;3.85;;;8.20;99.90;;;;;;5060073;28;20032;-86
2021/05/25 04:31:26;;;;;;;5.80;3.65;;;8.20;99.90;;;;;;5068945;28;20070;-86
2021/05/25 04:33:51;;;;;;;8.93;4.40;;;8.10;99.90;;;;;;5067227;28;20020;-85
2021/05/25 04:36:19;;;;;;;7.97;4.30;;;8.10;99.90;;;;;;5076526;28;20036;-86
2021/05/25 04:38:45;;;;;;;6.28;4.20;;;8.00;99.90;;;;;;5059219;28;20464;-86
2021/05/25 04:41:11;;;;;;;7.28;4.80;;;8.00;99.90;;;;;;5075842;28;20028;-86
2021/05/25 04:43:38;;;;;;;6.43;4.30;;;8.00;99.90;;;;;;5075914;28;20025;-86
2021/05/25 04:46:06;;;;;;;6.63;4.80;;;8.00;99.90;;;;;;5062660;28;20113;-86
2021/05/25 04:48:33;;;;;;;6.40;4.70;;;8.00;99.90;;;;;;5038849;28;20484;-86
2021/05/25 04:51:01;;;;;;;9.50;5.47;;;8.00;99.90;;;;;;5054289;28;20040;-86
2021/05/25 04:53:27;;;;;;;7.25;5.13;;;8.00;99.90;;;;;;5055837;28;20031;-87
2021/05/25 04:55:53;;;;;;;8.52;4.88;;;8.10;99.90;;;;;;5066387;28;20452;-86
2021/05/25 04:58:20;;;;;;;7.28;5.35;;;8.20;99.90;;;;;;5060090;28;20036;-86
2021/05/25 05:00:46;;;;;;;8.95;6.07;;;8.30;99.90;;;;;;5056632;28;20469;-86
2021/05/25 05:03:12;;;;;;;10.05;6.78;;;8.30;99.90;;;;;;5060896;28;20025;-86
2021/05/25 05:05:38;;;;;;;8.82;5.95;;;8.40;99.90;;;;;;5075339;28;20115;-87
2021/05/25 05:08:07;;;;;;;10.23;8.18;;;8.40;99.90;;;;;;5062401;28;20116;-86
2021/05/25 05:10:33;;;;;;;7.78;5.85;;;8.50;99.90;;;;;;5053841;28;20053;-87
2021/05/25 05:12:59;;;;;;;10.75;7.25;;;8.60;99.90;;;;;;5071357;28;20021;-87
2021/05/25 05:15:25;;;;;;;9.63;7.10;;;8.70;99.90;;;;;;5055257;28;20132;-86
2021/05/25 05:17:51;;;;;;;9.43;6.75;;;8.70;99.90;;;;;;5067197;28;20105;-86
2021/05/25 05:20:17;;;;;;;9.50;6.20;;;8.80;99.90;;;;;;5060293;28;20434;-87
2021/05/25 05:22:43;;;;;;;9.25;7.38;;;8.80;99.90;;;;;;5054832;28;20028;-86
2021/05/25 05:25:13;;;;;;;10.55;7.50;;;8.80;99.90;;;;;;5055092;28;20059;-87
2021/05/25 05:27:39;;;;;;;9.15;6.53;;;8.80;99.90;;;;;;5055779;28;20032;-87
2021/05/25 05:30:07;;;;;;;9.40;5.63;;;8.90;99.90;;;;;;5067571;28;20024;-87
2021/05/25 05:32:34;;;;;;;7.75;5.50;;;8.90;99.90;;;;;;5057925;28;20028;-86
2021/05/25 05:35:00;;;;;;;10.70;5.93;;;9.00;99.90;;;;;;5071114;28;20128;-87
2021/05/25 05:37:26;;;;;;;9.55;6.18;;;9.10;99.90;;;;;;5054468;28;20389;-87
2021/05/25 05:39:52;;;;;;;11.13;6.00;;;9.10;99.90;;;;;;5065706;28;20020;-86
2021/05/25 05:42:19;;;;;;;10.13;6.50;;;9.20;99.90;;;;;;5060093;28;20086;-88
2021/05/25 05:44:45;;;;;;;7.93;5.85;;;9.20;99.90;;;;;;5056524;28;20088;-88
2021/05/25 05:47:11;;;;;;;8.45;5.82;;;9.20;99.90;;;;;;5073971;28;20033;-87
2021/05/25 05:49:38;;;;;;;10.48;6.40;;;9.30;99.90;;;;;;5065783;28;20025;-88
2021/05/25 05:52:05;;;;;;;9.70;7.13;;;9.30;99.90;;;;;;5067996;28;20037;-87
2021/05/25 05:54:32;;;;;;;9.10;6.68;;;9.30;99.90;;;;;;5058103;28;20119;-88
2021/05/25 05:56:58;;;;;;;9.75;6.63;;;9.30;99.90;;;;;;5057748;28;20028;-87
2021/05/25 05:59:24;;;;;;;10.00;6.97;;;9.40;99.90;;;;;;5066853;28;20082;-87
2021/05/25 06:01:50;;;;;;;10.32;8.43;;;9.40;99.90;;;;;;5066219;28;20361;-87
2021/05/25 06:04:16;;;;;;;10.00;7.78;;;9.40;99.90;;;;;;5060599;28;20025;-88
2021/05/25 06:06:41;;;;;;;10.75;9.20;;;9.50;99.90;;;;;;5055715;28;20029;-88
2021/05/25 06:09:08;;;;;;;12.77;9.38;;;9.50;99.90;;;;;;5075452;28;20041;-89
2021/05/25 06:11:34;;;;;;;15.00;10.98;;;9.50;99.90;;;;;;5073905;28;20156;-87
2021/05/25 06:14:00;;;;;;;12.32;10.25;;;9.50;99.90;;;;;;5061467;28;20417;-87
2021/05/25 06:16:31;;;;;;;13.45;10.43;;;9.50;99.90;;;;;;5070346;28;20129;-89
2021/05/25 06:18:57;;;;;;;14.18;11.18;;;9.50;99.90;;;;;;5054389;28;20040;-89
2021/05/25 06:21:23;;;;;;;12.82;10.63;;;9.50;99.90;;;;;;5053253;28;20032;-89
2021/05/25 06:23:51;;;;;;;11.57;9.85;;;9.50;99.90;;;;;;5066592;28;20476;-89
2021/05/25 06:26:21;;;;;;;12.27;10.52;;;9.60;99.90;;;;;;5059282;28;20033;-88
2021/05/25 06:28:47;;;;;;;13.65;11.25;;;9.60;99.90;;;;;;5056335;28;20029;-88
2021/05/25 06:31:14;;;;;;;12.38;9.32;;;9.70;99.90;;;;;;5073875;28;20052;-89
2021/05/25 06:33:40;;;;;;;12.57;10.35;;;9.70;99.90;;;;;;5073973;28;20027;-87
2021/05/25 06:36:06;;;;;;;10.95;9.68;;;9.80;99.90;;;;;;5073319;28;20107;-88
2021/05/25 06:38:37;;;;;;;13.57;11.32;;;9.70;99.90;;;;;;5056732;28;20029;-88
2021/05/25 06:41:03;;;;;;;12.45;11.10;;;9.80;99.90;;;;;;5068730;28;20036;-87
2021/05/25 06:43:30;;;;;;;13.48;11.93;;;9.90;99.90;;;;;;5061486;28;20024;-89
2021/05/25 06:45:56;;;;;;;12.88;11.35;;;9.90;99.90;;;;;;5061754;28;20477;-87
2021/05/25 06:48:22;;;;;;;12.50;10.70;;;10.00;99.90;;;;;;5068082;28;20039;-87
2021/05/25 06:50:48;;;;;;;14.15;12.50;;;10.00;99.90;;;;;;5056484;28;20028;-87
2021/05/25 06:53:15;;;;;;;15.18;12.60;;;10.10;99.90;;;;;;5067041;28;20028;-88
2021/05/25 06:55:41;;;;;;;14.23;12.82;;;10.00;99.90;;;;;;5063153;28;20377;-89
2021/05/25 06:58:10;;;;;;;15.52;13.63;;;10.00;99.90;;;;;;5060353;28;20025;-88
2021/05/25 07:00:38;;;;;;;12.82;11.45;;;9.90;99.90;;;;;;5069726;28;20043;-89
2021/05/25 07:03:05;;;;;;;13.93;12.38;;;10.00;99.90;;;;;;5058218;28;20086;-88
2021/05/25 07:05:31;;;;;;;15.07;12.95;;;10.00;99.90;;;;;;5064903;28;20028;-91
2021/05/25 07:07:57;;;;;;;15.60;13.02;;;10.10;99.90;;;;;;5064851;28;20036;-89
2021/05/25 07:10:25;;;;;;;12.45;11.15;;;10.10;99.90;;;;;;5072827;28;20553;-89
2021/05/25 07:12:51;;;;;;;14.02;11.75;;;10.20;99.90;;;;;;5056078;28;20097;-89
2021/05/25 07:15:19;;;;;;;13.25;11.57;;;10.40;99.90;;;;;;5066125;28;20032;-90
2021/05/25 07:17:58;;;;;;;13.93;12.45;;;10.50;99.90;;;;;;5062207;28;20480;-91
2021/05/25 07:20:27;;;;;;;14.25;12.27;;;10.50;99.90;;;;;;5057386;28;20032;-91
2021/05/25 07:22:56;;;;;;;13.80;11.48;;;10.60;99.90;;;;;;5055203;28;20029;-91
2021/05/25 07:25:43;;;;;;;13.63;11.50;;;10.60;99.90;;;;;;5073155;28;20098;-92
2021/05/25 07:28:12;;;;;;;14.63;12.68;;;10.60;99.90;;;;;;5073017;28;20033;-90
2021/05/25 07:30:41;;;;;;;15.05;13.55;;;10.60;99.90;;;;;;5057050;28;20074;-90
2021/05/25 07:33:10;;;;;;;14.43;12.95;;;10.60;99.90;;;;;;5066421;28;20047;-89
2021/05/25 07:35:40;;;;;;;13.55;12.07;;;10.50;99.90;;;;;;5072425;28;20089;-90
2021/05/25 07:38:09;;;;;;;13.85;12.30;;;10.60;99.90;;;;;;5072685;28;20024;-90
2021/05/25 07:40:42;;;;;;;13.85;11.30;;;10.80;99.90;;;;;;5071987;28;20032;-92
2021/05/25 07:43:19;;;;;;;12.55;11.15;;;10.90;99.90;;;;;;5056361;28;20024;-90
2021/05/25 07:46:05;;;;;;;11.65;10.30;;;11.00;99.90;;;;;;5063156;28;20116;-92
2021/05/25 07:48:37;;;;;;;11.95;10.02;;;11.10;99.90;;;;;;5056381;28;20075;-91
2021/05/25 07:51:04;;;;;;;12.30;11.00;;;11.30;99.90;;;;;;5056757;28;20028;-91
2021/05/25 07:53:31;;;;;;;13.30;11.20;;;11.40;99.90;;;;;;5072490;28;20081;-90
2021/05/25 07:55:57;;;;;;;14.35;12.10;;;11.50;99.90;;;;;;5071998;28;20032;-91
2021/05/25 07:59:08;;;;;;;11.75;10.55;;;11.60;99.90;;;;;;5073628;28;20020;-91
2021/05/25 08:01:45;;;;;;;11.18;10.07;;;11.70;99.90;;;;;;5055746;28;20039;-90
2021/05/25 08:04:14;;;;;;;9.68;8.27;;;11.80;99.90;;;;;;5059413;28;20254;-91
2021/05/25 08:07:03;;;;;;;10.68;9.48;;;11.80;99.90;;;;;;5053680;28;20025;-91
2021/05/25 08:09:31;;;;;;;9.57;8.38;;;11.70;99.90;;;;;;5058249;28;20401;-88
2021/05/25 08:11:58;;;;;;;10.55;9.50;;;11.40;99.90;;;;;;5051899;28;20477;-89
2021/05/25 08:14:28;;;;;;;10.63;9.52;;;11.10;99.90;;;;;;5061617;28;20045;-88
2021/05/25 08:17:05;;;;;;;11.38;10.02;;;10.90;99.90;;;;;;5060296;28;20039;-88
2021/05/25 08:19:35;;;;;;;10.65;9.55;;;11.00;99.90;;;;;;5059665;28;20166;-88
2021/05/25 08:22:04;;;;;;;12.02;9.15;;;11.10;99.90;;;;;;5070887;28;20107;-89
2021/05/25 08:24:32;;;;;;;10.15;9.05;;;11.20;99.90;;;;;;5064357;28;20384;-87
2021/05/25 08:27:21;;;;;;;11.23;9.95;;;11.40;99.90;;;;;;5053779;28;20083;-89
2021/05/25 08:29:53;;;;;;;11.98;10.13;;;11.60;99.90;;;;;;5064642;28;20021;-89
2021/05/25 08:32:21;;;;;;;11.95;10.63;;;11.70;99.90;;;;;;5044861;28;20155;-89
2021/05/25 08:34:49;;;;;;;10.38;9.32;;;11.80;99.90;;;;;;5067912;28;20364;-89
2021/05/25 08:37:16;;;;;;;12.02;8.93;;;11.90;99.90;;;;;;5062381;28;20025;-90
2021/05/25 08:39:47;;;;;;;9.30;6.82;;;12.00;99.90;;;;;;5057897;28;20116;-91
2021/05/25 08:42:14;;;;;;;7.35;4.57;;;12.10;99.90;;;;;;5064004;28;20028;-91
2021/05/25 08:44:40;;;;;;;7.55;4.35;;;12.10;99.90;;;;;;5053658;28;20025;-88
2021/05/25 08:47:11;;;;;;;6.57;3.90;;;12.10;99.90;;;;;;5071183;28;20495;-89
2021/05/25 08:49:59;;;;;;;4.43;3.20;;;12.30;99.90;;;;;;5069326;28;20025;-91
2021/05/25 08:52:25;;;;;;;6.50;4.05;;;12.40;99.90;;;;;;5063519;28;20017;-91
2021/05/25 08:54:55;;;;;;;7.20;4.10;;;12.60;99.90;;;;;;5064055;28;20027;-91
2021/05/25 08:57:21;;;;;;;7.50;3.55;;;12.90;99.90;;;;;;5049779;28;20216;-92
2021/05/25 08:59:52;;;;;;;9.48;4.05;;;13.00;99.90;;;;;;5057984;28;20108;-91
2021/05/25 09:02:21;;;;;;;7.70;3.55;;;13.20;99.90;;;;;;5059055;28;20074;-89
2021/05/25 09:05:10;;;;;;;7.50;3.72;;;13.30;99.90;;;;;;5066477;28;20032;-90
2021/05/25 09:07:43;;;;;;;3.42;2.05;;;13.40;99.90;;;;;;5066131;28;20074;-93
2021/05/25 09:10:21;;;;;;;5.25;1.50;;;13.40;99.90;;;;;;5067958;28;20048;-89
2021/05/25 09:12:53;;;;;;;3.03;1.00;;;12.90;99.90;;;;;;5065102;28;20028;-93
2021/05/25 09:15:45;;;;;;;4.05;1.10;;;11.80;99.90;;;;;;5062703;28;20112;-91
2021/05/25 09:18:27;;;;;;;4.15;1.20;;;10.80;99.90;;;;;;5073076;28;20527;-90
2021/05/25 09:21:04;;;;;;;3.28;1.55;;;10.30;99.90;;;;;;5062050;28;20154;-92
2021/05/25 09:23:42;;;;;;;4.63;2.10;;;10.20;99.90;;;;;;5064260;28;20582;-89
2021/05/25 09:26:26;;;;;;;5.50;2.17;;;10.10;99.90;;;;;;5061091;28;20404;-90
2021/05/25 09:28:57;;;;;;;5.30;2.45;;;10.00;99.90;;;;;;5067725;28;20043;-92
2021/05/25 09:31:51;;;;;;;5.30;2.30;;;9.90;99.90;;;;;;5065454;28;20029;-93
2021/05/25 09:34:26;;;;;;;;;;;9.80;99.90;;;;;;5061910;28;20029;-94
2021/05/25 09:37:44;;;;;;;4.70;2.15;;;9.90;99.90;;;;;;5070228;28;19998;-93
2021/05/25 09:40:24;;;;;;;4.18;1.85;;;10.00;99.90;;;;;;5066954;28;20050;-94
2021/05/25 09:43:28;;;;;;;5.57;2.00;;;10.00;99.90;;;;;;5064674;28;20094;-92
2021/05/25 09:46:17;;;;;;;4.23;1.40;;;10.10;99.90;;;;;;5058611;28;20023;-93
2021/05/25 09:48:56;;;;;;;4.20;1.60;;;10.20;99.90;;;;;;5055243;28;20052;-93
2021/05/25 09:51:24;;;;;;;3.47;1.20;;;10.40;99.90;;;;;;5055702;28;20056;-92
2021/05/25 09:53:53;;;;;;;3.63;1.35;;;10.70;99.90;;;;;;5061712;28;20044;-91
2021/05/25 09:56:27;;;;;;;3.40;1.33;;;10.90;99.90;;;;;;5072895;28;20020;-91
2021/05/25 09:59:10;;;;;;;;;;;;;;;;;;;;;
2021/05/25 10:01:37;;;;;;;7.10;3.05;;;11.20;99.90;;;;;;5066434;28;20023;-92
2021/05/25 10:04:15;;;;;;;7.13;4.03;;;11.40;99.90;;;;;;5054187;28;20094;-91
2021/05/25 10:06:44;;;;;;;8.60;4.10;;;11.40;99.90;;;;;;5054544;28;20090;-91
2021/05/25 10:09:15;;;;;;;6.40;3.88;;;11.50;99.90;;;;;;5069380;28;20029;-92
2021/05/25 10:11:48;;;;;;;9.07;5.07;;;11.70;99.90;;;;;;5058548;28;20056;-92
2021/05/25 10:14:15;;;;;;;9.20;4.70;;;11.90;99.90;;;;;;5073510;28;20036;-91
2021/05/25 10:16:46;;;;;;;11.00;6.40;;;12.40;99.90;;;;;;5065847;28;20663;-92
2021/05/25 10:19:26;;;;;;;9.10;4.78;;;12.90;99.90;;;;;;5065827;28;20037;-93
2021/05/25 10:21:56;;;;;;;9.07;5.00;;;12.80;99.90;;;;;;5065008;28;20032;-91
2021/05/25 10:24:24;;;;;;;7.07;5.20;;;12.60;99.90;;;;;;5074638;28;20021;-92
2021/05/25 10:26:53;;;;;;;10.10;4.68;;;12.40;99.90;;;;;;5070061;28;20021;-91
2021/05/25 10:29:23;;;;;;;10.70;5.53;;;12.90;99.90;;;;;;5073252;28;20036;-91
2021/05/25 10:31:57;;;;;;;10.27;5.20;;;12.90;99.90;;;;;;5074069;28;20025;-91
2021/05/25 10:34:47;;;;;;;;;;;12.60;99.90;;;;;;5059674;28;20048;-92
2021/05/25 10:37:25;;;;;;;5.97;2.78;;;12.00;99.90;;;;;;5059536;28;19949;-94
2021/05/25 10:39:56;;;;;;;5.28;3.17;;;11.20;99.90;;;;;;5067783;28;20032;-93
2021/05/25 10:42:32;;;;;;;7.22;3.50;;;10.70;99.90;;;;;;5056265;28;20028;-92
2021/05/25 10:45:04;;;;;;;9.98;4.63;;;10.60;99.90;;;;;;5052933;28;20037;-92
2021/05/25 10:48:10;;;;;;;7.88;4.95;;;10.50;99.90;;;;;;5052019;28;20041;-92
2021/05/25 10:50:49;;;;;;;11.85;6.32;;;10.50;99.90;;;;;;5071614;28;20029;-90
2021/05/25 10:53:17;;;;;;;10.50;5.90;;;10.70;99.90;;;;;;5058828;28;20029;-91
2021/05/25 10:55:44;;;;;;;8.25;5.85;;;10.80;99.90;;;;;;5072244;28;20109;-91
2021/05/25 10:58:32;;;;;;;12.65;6.60;;;11.10;99.90;;;;;;5071514;28;20531;-92
2021/05/25 11:01:28;;;;;;;12.13;6.40;;;11.40;99.90;;;;;;5054888;28;20054;-89
2021/05/25 11:04:09;;;;;;;10.20;8.02;;;12.00;99.90;;;;;;5059579;28;20032;-91
2021/05/25 11:06:37;;;;;;;14.15;7.88;;;12.90;99.90;;;;;;5051876;28;20017;-89
2021/05/25 11:09:31;;;;;;;12.45;7.25;;;13.80;99.90;;;;;;5068248;28;20032;-89
2021/05/25 11:12:16;;;;;;;8.50;4.20;;;14.60;99.90;;;;;;5060125;28;20164;-91
2021/05/25 11:15:18;;;;;;;6.35;3.05;;;15.30;99.90;;;;;;5067799;28;20040;-89
2021/05/25 11:17:47;;;;;;;8.05;3.47;;;16.10;99.90;;;;;;5062145;28;20059;-90
2021/05/25 11:21:05;;;;;;;12.82;3.75;;;16.80;99.90;;;;;;5068032;28;20025;-89
2021/05/25 11:23:51;;;;;;;8.23;2.85;;;17.10;99.90;;;;;;5056170;28;20037;-91
2021/05/25 11:26:58;;;;;;;6.70;2.22;;;17.50;99.90;;;;;;5057059;28;20473;-90
2021/05/25 11:29:34;;;;;;;8.43;2.05;;;17.80;99.90;;;;;;5040407;28;20048;-92
2021/05/25 11:32:15;;;;;;;4.65;1.55;;;17.50;99.90;;;;;;5060979;28;20029;-91
2021/05/25 11:34:44;;;;;;;5.82;1.65;;;17.30;99.90;;;;;;5070454;28;20033;-92
2021/05/25 11:37:16;;;;;;;4.38;1.30;;;17.50;99.90;;;;;;5058010;28;20029;-90
2021/05/25 11:39:46;;;;;;;6.00;1.50;;;18.00;99.90;;;;;;5062304;28;20056;-89
2021/05/25 11:42:21;;;;;;;6.38;1.60;;;18.40;99.90;;;;;;5065041;28;20029;-91
2021/05/25 11:44:47;;;;;;;5.95;2.00;;;18.30;99.90;;;;;;5053415;28;20047;-89
2021/05/25 11:47:14;;;;;;;3.95;1.45;;;18.60;99.90;;;;;;5053488;28;20033;-90
2021/05/25 11:49:44;;;;;;;6.18;1.60;;;18.90;99.90;;;;;;5063057;28;20077;-91
2021/05/25 11:52:34;;;;;;;4.10;1.35;;;18.80;99.90;;;;;;5051145;28;20115;-88
2021/05/25 11:55:03;;;;;;;2.95;1.15;;;17.50;99.90;;;;;;5054424;28;20151;-88
2021/05/25 11:57:33;;;;;;;4.75;1.20;;;16.50;99.90;;;;;;5060592;28;20131;-85
2021/05/25 12:00:10;;;;;;;5.63;1.40;;;16.00;99.90;;;;;;5060325;28;20024;-87
2021/05/25 12:02:37;;;;;;;2.53;0.85;;;15.70;99.90;;;;;;5065153;28;20021;-88
2021/05/25 12:05:23;;;;;;;2.63;0.90;;;15.70;99.90;;;;;;5049224;28;20029;-87
2021/05/25 12:07:54;;;;;;;4.32;1.10;;;16.20;99.90;;;;;;5055974;28;20033;-91
2021/05/25 12:10:27;;;;;;;3.63;1.17;;;16.50;99.90;;;;;;5065072;28;20079;-86
2021/05/25 12:13:01;;;;;;;4.43;0.80;;;16.20;99.90;;;;;;5050841;28;20032;-86
2021/05/25 12:15:29;;;;;;;3.63;1.15;;;16.20;99.90;;;;;;5057496;28;20013;-87
2021/05/25 12:17:57;;;;;;;4.53;1.13;;;16.00;99.90;;;;;;5068026;28;20020;-86
2021/05/25 12:20:38;;;;;;;5.53;1.00;;;15.80;99.90;;;;;;5069732;28;20025;-86
2021/05/25 12:23:17;;;;;;;2.30;0.80;;;15.60;99.90;;;;;;5058631;28;20032;-86
2021/05/25 12:25:52;;;;;;;2.47;0.70;;;15.50;99.90;;;;;;5065970;28;20033;-88
2021/05/25 12:28:23;;;;;;;3.65;0.95;;;15.50;99.90;;;;;;5069172;28;20043;-88
2021/05/25 12:30:55;;;;;;;2.33;0.70;;;15.30;99.90;;;;;;5072735;28;20036;-92
2021/05/25 12:33:30;;;;;;;3.75;0.80;;;15.20;99.90;;;;;;5065963;28;20078;-89
2021/05/25 12:36:34;;;;;;;1.65;0.70;;;15.00;99.90;;;;;;5063870;28;20352;-88
2021/05/25 12:39:13;;;;;;;3.47;0.80;;;15.00;99.90;;;;;;5062322;28;20025;-88
2021/05/25 12:41:50;;;;;;;2.83;0.80;;;15.00;99.90;;;;;;5061919;28;20024;-90
2021/05/25 12:44:27;;;;;;;2.80;0.90;;;14.70;99.90;;;;;;5054764;28;20048;-86
2021/05/25 12:47:10;;;;;;;2.63;0.60;;;14.50;99.90;;;;;;5069117;28;20362;-86
2021/05/25 12:49:37;;;;;;;4.47;1.30;;;14.30;99.90;;;;;;5050151;28;20097;-85
2021/05/25 12:52:25;;;;;;;2.70;0.63;;;14.10;99.90;;;;;;5070791;28;20074;-88
2021/05/25 12:54:54;;;;;;;1.98;0.52;;;14.10;99.90;;;;;;5067391;28;20032;-86
2021/05/25 12:57:20;;;;;;;2.28;0.60;;;14.20;99.90;;;;;;5057538;28;20029;-88
2021/05/25 12:59:58;;;;;;;5.65;0.63;;;14.60;99.90;;;;;;5054869;28;20687;-88
2021/05/25 13:02:37;;;;;;;2.58;0.60;;;14.80;99.90;;;;;;5071119;28;20039;-89
2021/05/25 13:05:08;;;;;;;3.90;0.70;;;14.90;99.90;;;;;;5067784;28;20093;-89
2021/05/25 13:07:52;;;;;;;3.33;0.70;;;15.00;99.90;;;;;;5069123;28;20117;-88
2021/05/25 13:10:30;;;;;;;1.65;0.70;;;15.30;99.90;;;;;;5075414;28;20062;-89
2021/05/25 13:13:14;;;;;;;2.50;0.70;;;15.40;99.90;;;;;;5071800;28;20047;-88